Waukena, California
Current Conditions -  °F | °C
As of 12:15 AM on Tuesday 21 Oct 2014 (Local Time) from KVIS Reporting Station
Clear Clear  
Wind Chill: 63°   Ceiling: Unl
Heat Index: 63°   Visibility: 10mi
Dew Point: 48°   Wind: 12mph
Humidity: 59%   Direction: 310°NW
Pressure: 30"   Gusts: NA
Location:  36.14°N, 119.51°W
Report Text: KVIS 210715Z 31010KT 10SM CLR 17/09 A3000 RMK AO1
Loading
Personal Weather Stations






























Interactive Weather Map
Tropical Storm Tracking
New forecast layout! Learn more

10-Day Weather Forecast

Advertisements
Track Severe Weather on mobile